Greenland, NH (03840)

4:03 AM EDT on September 04, 2015 (GMT -0400)
Greenland, NH | | Change Station
CLOSE
Current Station
Personal Weather Station
Location: Greenland, NH
Elevation: 96 ft
Nearby Weather Stations

Elev 96 ft 43.03 °N, 70.83 °W | Updated 3 minutes ago

Mostly Cloudy
Mostly Cloudy
67.6 °F
Feels Like 67.6 °F
N
6.0
Wind Variable Wind from North
Gusts 14.0 mph

Today
High -- | Low -- °F
--% Chance of Precip.
Yesterday
High -- | Low -- °F
Precip. -- in
6:10 AM 7:13 PM
Waning Gibbous, 62% visible
Pressure 30.00 in
Visibility 10.0 miles
Clouds Mostly Cloudy 3500 ft
Dew Point 57 °F
Humidity 68%
Rainfall 0.00 in
Snow Depth Not available.
UV 0 out of 12
Pollen 6.90 out of 12
Air Quality Not available.
Flu Activity Not available.
METAR KPSM 040658Z 06016G20KT 10SM BKN035 21/16 A2999 RMK AO2A SLP157 T02070157
Pressure 30.00 in
Visibility 10.0 miles
Clouds Mostly Cloudy 3500 ft
Dew Point 57 °F
Humidity 68%
Rainfall 0.00 in
Snow Depth Not available.
UV 0 out of 12
Pollen 6.90 out of 12
Air Quality Not available.
Flu Activity Not available.
METAR KPSM 040658Z 06016G20KT 10SM BKN035 21/16 A2999 RMK AO2A SLP157 T02070157

10-Day Weather Forecast

×

Almanac

Astronomy

Sep. 04, 2015 Rise Set
Actual Time
Civil Twilight
Nautical Twilight
Astronomical Twilight
Moon
Length of Visible Light
Length of Day
Tomorrow will be .
, % of the Moon is Illuminated

Today's Extremes

State Highs State Lows

Community

WunderPhotos

Upload Photos

1,852,141 photos uploaded!

WunderBlogs® & News

Nearby

Air Quality

  Air Quality AQ Index Pollutant
Not available.

Snow Depth

Station Depth Elevation

Earthquake Activity

City Distance Mag. Time & Date
Minimum magnitude displayed is 2.5.

Coastal Water Temperatures

Place Temperature

Stations

Nearby Weather Stations

Station Location Temp. Windchill Dew Point Humidity Wind Precip. Elev Updated Type